Time;durP1;ratioP1;P1;durP2;ratioP2;P2;SDS_P1;SDS_P2;PMS_P1;PMS_P2;Temp;Humidity;BMP_temperature;BMP_pressure;BME280_temperature;BME280_humidity;BME280_pressure;Samples;Min_cycle;Max_cycle;Signal;HPM_P1;HPM_P2
2022/08/15 00:00:54;;;;;;;0.20;0.20;;;;;;;20.21;63.00;100147.06;5087195;28;20158;-67
2022/08/15 00:03:28;;;;;;;0.25;0.25;;;;;;;20.14;63.41;100144.75;5087276;28;20031;-67
2022/08/15 00:05:59;;;;;;;0.20;0.20;;;;;;;20.08;63.93;100136.31;5087269;28;20085;-66
2022/08/15 00:08:26;;;;;;;0.20;0.20;;;;;;;20.05;63.99;100142.56;5087378;28;20101;-66
2022/08/15 00:10:53;;;;;;;0.73;0.73;;;;;;;20.02;63.97;100135.69;5069594;28;20358;-66
2022/08/15 00:13:22;;;;;;;0.40;0.40;;;;;;;20.02;64.34;100145.34;5068664;28;20207;-66
2022/08/15 00:15:51;;;;;;;0.30;0.30;;;;;;;20.00;64.34;100145.41;5086757;28;20066;-67
2022/08/15 00:18:18;;;;;;;0.20;0.20;;;;;;;19.99;64.59;100133.19;5085567;28;20017;-66
2022/08/15 00:20:43;;;;;;;0.20;0.20;;;;;;;19.95;64.79;100126.38;5086891;28;20033;-67
2022/08/15 00:23:11;;;;;;;0.20;0.20;;;;;;;19.98;64.63;100136.75;5086732;28;20024;-67
2022/08/15 00:25:37;;;;;;;1.23;1.15;;;;;;;20.00;64.42;100128.78;5087006;28;20025;-68
2022/08/15 00:28:07;;;;;;;0.20;0.20;;;;;;;19.95;64.35;100121.13;5086800;28;20028;-67
2022/08/15 00:30:35;;;;;;;0.20;0.20;;;;;;;20.03;64.52;100129.47;5086675;28;20103;-67
2022/08/15 00:33:01;;;;;;;0.25;0.25;;;;;;;20.02;64.49;100127.78;5086304;28;20027;-67
2022/08/15 00:35:36;;;;;;;0.20;0.20;;;;;;;19.94;64.52;100122.88;5086347;28;20029;-67
2022/08/15 00:38:03;;;;;;;0.20;0.20;;;;;;;19.99;64.47;100138.44;5086000;28;20058;-67
2022/08/15 00:40:29;;;;;;;0.20;0.20;;;;;;;20.02;64.08;100132.16;5086157;28;20348;-67
2022/08/15 00:42:54;;;;;;;0.47;0.47;;;;;;;20.03;64.09;100132.09;5086287;28;20109;-67
2022/08/15 00:45:21;;;;;;;0.35;0.35;;;;;;;20.06;63.91;100131.13;5086404;28;20024;-67
2022/08/15 00:48:41;;;;;;;0.20;0.20;;;;;;;20.05;63.75;100124.97;5086320;28;20051;-67
2022/08/15 00:50:33;;;;;;;0.20;0.20;;;;;;;20.06;63.58;100121.41;5085999;28;20024;-67
2022/08/15 00:53:04;;;;;;;0.20;0.20;;;;;;;20.04;63.62;100115.38;5085866;28;20054;-66
2022/08/15 00:55:30;;;;;;;0.20;0.20;;;;;;;20.00;63.51;100108.53;5085919;28;20411;-67
2022/08/15 00:57:56;;;;;;;0.20;0.20;;;;;;;20.00;63.65;100108.53;5085919;28;20024;-67
2022/08/15 01:00:26;;;;;;;0.57;0.57;;;;;;;19.99;63.15;100111.25;5086125;28;20030;-67
2022/08/15 01:02:54;;;;;;;1.40;0.57;;;;;;;19.99;63.18;100114.75;5086044;28;20107;-66
2022/08/15 01:05:20;;;;;;;0.20;0.20;;;;;;;20.02;63.02;100111.09;5086427;28;20021;-67
2022/08/15 01:07:46;;;;;;;0.20;0.20;;;;;;;20.04;63.05;100118.03;5067788;28;20066;-66
2022/08/15 01:10:12;;;;;;;0.57;0.57;;;;;;;20.02;62.89;100117.25;5085795;28;20073;-67
2022/08/15 01:12:38;;;;;;;0.20;0.20;;;;;;;20.07;62.63;100119.63;5067327;28;20023;-66
2022/08/15 01:15:10;;;;;;;5.05;4.47;;;;;;;20.04;62.86;100117.16;5067720;28;20441;-67
2022/08/15 01:17:36;;;;;;;0.57;0.57;;;;;;;20.02;62.55;100118.97;5085668;28;20024;-67
2022/08/15 01:20:11;;;;;;;0.40;0.40;;;;;;;19.99;62.30;100116.50;5085749;28;20037;-66
2022/08/15 01:22:40;;;;;;;0.43;0.40;;;;;;;19.93;62.73;100115.94;5085280;28;20040;-67
2022/08/15 01:25:08;;;;;;;0.85;0.85;;;;;;;19.90;62.90;100107.31;5085193;28;20126;-67
2022/08/15 01:27:41;;;;;;;0.20;0.20;;;;;;;19.84;62.79;100113.75;5067211;28;20024;-66
2022/08/15 01:30:10;;;;;;;0.20;0.20;;;;;;;19.81;63.18;100112.13;5067188;28;20342;-66
2022/08/15 01:32:36;;;;;;;0.20;0.20;;;;;;;19.75;63.32;100103.69;5085331;28;20054;-66
2022/08/15 01:35:03;;;;;;;0.40;0.40;;;;;;;19.77;63.42;100118.50;5085103;28;20040;-67
2022/08/15 01:37:30;;;;;;;0.30;0.30;;;;;;;19.67;63.30;100106.72;5085341;28;20020;-67
2022/08/15 01:40:04;;;;;;;0.20;0.20;;;;;;;19.72;63.67;100109.97;5085399;28;20103;-66
2022/08/15 01:42:44;;;;;;;0.30;0.30;;;;;;;19.70;63.85;100106.56;5084876;28;20020;-66
2022/08/15 01:45:21;;;;;;;0.20;0.20;;;;;;;19.63;63.99;100097.31;5085397;28;20025;-66
2022/08/15 01:47:52;;;;;;;0.47;0.47;;;;;;;19.62;64.17;100098.22;5085110;28;20032;-65
2022/08/15 01:50:27;;;;;;;0.30;0.30;;;;;;;19.61;64.26;100091.25;5084910;28;20028;-65
2022/08/15 01:53:11;;;;;;;0.70;0.70;;;;;;;19.59;64.53;100093.97;5084910;28;20119;-66
2022/08/15 01:55:47;;;;;;;0.75;0.52;;;;;;;19.57;64.50;100101.94;5085181;28;20016;-66
2022/08/15 01:58:14;;;;;;;0.68;0.68;;;;;;;19.49;64.52;100098.84;5084586;28;20042;-65
2022/08/15 02:00:51;;;;;;;0.20;0.20;;;;;;;19.47;64.68;100095.47;5084490;28;20035;-65
2022/08/15 02:03:17;;;;;;;0.25;0.25;;;;;;;19.41;64.67;100088.72;5084702;28;20027;-65
2022/08/15 02:05:42;;;;;;;0.20;0.20;;;;;;;19.51;64.20;100089.09;5084906;28;20028;-65
2022/08/15 02:08:08;;;;;;;0.20;0.20;;;;;;;19.45;64.44;100086.78;5084177;28;20021;-65
2022/08/15 02:10:33;;;;;;;0.35;0.35;;;;;;;19.45;64.36;100086.78;5084762;28;20051;-66
2022/08/15 02:12:59;;;;;;;1.10;1.08;;;;;;;19.47;64.73;100084.06;5084363;28;20032;-65
2022/08/15 02:15:25;;;;;;;0.32;0.32;;;;;;;19.42;64.76;100087.78;5084354;28;20044;-65
2022/08/15 02:17:50;;;;;;;0.20;0.20;;;;;;;19.47;64.69;100081.44;5084883;28;20023;-65
2022/08/15 02:20:18;;;;;;;0.30;0.30;;;;;;;19.39;64.79;100082.66;5084630;28;20020;-65
2022/08/15 02:22:43;;;;;;;0.20;0.20;;;;;;;19.39;64.66;100087.09;5084164;28;20024;-65
2022/08/15 02:25:09;;;;;;;0.30;0.30;;;;;;;19.40;64.63;100076.47;5084224;28;20027;-65
2022/08/15 02:27:37;;;;;;;0.28;0.28;;;;;;;19.37;64.81;100086.31;5083839;28;20052;-66
2022/08/15 02:30:13;;;;;;;0.20;0.20;;;;;;;19.36;64.84;100087.25;5084441;28;20032;-65
2022/08/15 02:32:40;;;;;;;0.50;0.50;;;;;;;19.43;64.50;100071.06;5084165;28;20024;-65
2022/08/15 02:35:07;;;;;;;0.20;0.20;;;;;;;19.41;64.53;100069.44;5084236;28;20476;-65
2022/08/15 02:37:32;;;;;;;1.10;1.10;;;;;;;19.42;64.39;100079.03;5084078;28;20093;-65
2022/08/15 02:39:58;;;;;;;0.20;0.20;;;;;;;19.33;64.66;100067.19;5083588;28;20468;-66
2022/08/15 02:42:24;;;;;;;0.60;0.60;;;;;;;19.35;64.76;100070.59;5083381;28;20017;-66
2022/08/15 02:44:50;;;;;;;0.43;0.43;;;;;;;19.30;64.69;100062.94;5084255;28;20029;-66
2022/08/15 02:47:18;;;;;;;0.20;0.20;;;;;;;19.27;64.93;100072.75;5083982;28;20059;-66
2022/08/15 02:49:43;;;;;;;0.20;0.20;;;;;;;19.24;64.71;100065.88;5084056;28;20025;-66
2022/08/15 02:52:10;;;;;;;0.20;0.20;;;;;;;19.11;65.07;100063.00;5083918;28;20017;-66
2022/08/15 02:54:36;;;;;;;0.20;0.20;;;;;;;19.13;65.33;100060.31;5083753;28;20083;-66
2022/08/15 02:57:02;;;;;;;0.28;0.28;;;;;;;19.07;65.39;100070.16;5065775;28;20044;-66
2022/08/15 02:59:28;;;;;;;0.40;0.40;;;;;;;18.99;65.36;100064.47;5083885;28;20016;-66
2022/08/15 03:01:56;;;;;;;0.35;0.35;;;;;;;19.00;65.44;100063.50;5084077;28;20029;-66
2022/08/15 03:04:23;;;;;;;0.45;0.45;;;;;;;18.99;65.53;100064.47;5084257;28;20028;-66
2022/08/15 03:06:53;;;;;;;0.20;0.20;;;;;;;18.90;65.69;100059.63;5083791;28;20028;-66
2022/08/15 03:09:20;;;;;;;0.20;0.20;;;;;;;18.95;65.74;100069.00;5083697;28;20020;-65
2022/08/15 03:11:46;;;;;;;0.20;0.20;;;;;;;18.92;65.96;100057.78;5083537;28;20028;-65
2022/08/15 03:14:16;;;;;;;1.27;1.27;;;;;;;18.92;65.64;100057.78;5065933;28;20031;-65
2022/08/15 03:16:44;;;;;;;0.30;0.30;;;;;;;18.89;65.68;100052.66;5083856;28;20089;-65
2022/08/15 03:19:19;;;;;;;0.30;0.30;;;;;;;19.01;65.79;100062.56;5083865;28;20112;-66
2022/08/15 03:21:46;;;;;;;0.32;0.32;;;;;;;19.01;65.78;100059.94;5065485;28;20024;-66
2022/08/15 03:24:12;;;;;;;0.20;0.20;;;;;;;18.98;65.53;100051.38;5083588;28;20025;-65
2022/08/15 03:26:38;;;;;;;0.25;0.25;;;;;;;19.01;65.58;100045.97;5083668;28;20029;-66
2022/08/15 03:29:06;;;;;;;0.20;0.20;;;;;;;18.94;65.71;100043.63;5083802;28;20067;-65
2022/08/15 03:31:37;;;;;;;0.20;0.20;;;;;;;18.97;65.62;100045.25;5066307;28;20414;-68
2022/08/15 03:34:02;;;;;;;0.20;0.20;;;;;;;18.97;65.61;100045.25;5083689;28;20226;-66
2022/08/15 03:36:28;;;;;;;0.57;0.57;;;;;;;18.95;65.57;100039.22;5083357;28;20070;-66
2022/08/15 03:38:53;;;;;;;0.20;0.20;;;;;;;18.94;65.70;100048.03;5083383;28;20020;-66
2022/08/15 03:41:19;;;;;;;0.20;0.20;;;;;;;18.95;65.60;100042.69;5083179;28;20032;-66
2022/08/15 03:43:46;;;;;;;0.28;0.28;;;;;;;18.98;65.70;100043.50;5083400;28;20024;-66
2022/08/15 03:46:17;;;;;;;0.60;0.60;;;;;;;19.01;65.47;100049.44;5083162;28;20048;-66
2022/08/15 03:48:47;;;;;;;0.52;0.52;;;;;;;19.02;65.51;100043.25;5083752;28;20441;-67
2022/08/15 03:51:14;;;;;;;0.30;0.30;;;;;;;19.01;65.85;100035.44;5083370;28;20033;-66
2022/08/15 03:53:45;;;;;;;0.30;0.30;;;;;;;19.04;65.69;100038.75;5087062;28;20024;-66
2022/08/15 03:56:18;;;;;;;0.30;0.30;;;;;;;19.07;65.34;100033.34;5087012;28;20017;-66
2022/08/15 03:58:44;;;;;;;0.20;0.20;;;;;;;19.08;65.51;100034.19;5069257;28;20024;-66
2022/08/15 04:01:13;;;;;;;0.30;0.30;;;;;;;19.11;65.38;100027.94;5087234;28;20020;-66
2022/08/15 04:03:39;;;;;;;0.28;0.28;;;;;;;19.13;65.21;100024.31;5086718;28;20027;-65
2022/08/15 04:06:10;;;;;;;0.47;0.47;;;;;;;19.17;64.96;100025.88;5086718;28;20031;-65
2022/08/15 04:08:36;;;;;;;0.20;0.20;;;;;;;19.18;64.88;100032.00;5086741;28;20029;-66
2022/08/15 04:11:05;;;;;;;0.65;0.65;;;;;;;19.24;64.77;100023.78;5068677;28;20031;-66
2022/08/15 04:13:31;;;;;;;0.20;0.20;;;;;;;19.32;64.68;100018.97;5086679;28;20031;-65
2022/08/15 04:15:59;;;;;;;0.20;0.20;;;;;;;19.42;64.49;100019.34;5086931;28;20060;-65
2022/08/15 04:18:24;;;;;;;0.60;0.60;;;;;;;19.49;64.46;100017.22;5086432;28;20024;-65
2022/08/15 04:20:51;;;;;;;0.63;0.63;;;;;;;19.57;64.01;100009.78;5086378;28;20025;-65
2022/08/15 04:23:17;;;;;;;0.30;0.30;;;;;;;19.74;64.01;100005.44;5051599;28;20025;-66
2022/08/15 04:25:43;;;;;;;0.30;0.30;;;;;;;19.98;63.70;99994.50;5086823;28;20445;-67
2022/08/15 04:28:13;;;;;;;0.20;0.20;;;;;;;20.24;63.42;99991.38;5086310;28;20037;-69
2022/08/15 04:30:40;;;;;;;0.20;0.20;;;;;;;20.48;63.06;99980.38;5068748;28;20074;-73
2022/08/15 04:33:19;;;;;;;0.22;0.22;;;;;;;20.79;62.52;99983.88;5086393;28;20074;-64
2022/08/15 04:35:52;;;;;;;0.63;0.63;;;;;;;21.12;62.24;99974.09;5086183;28;20020;-65
2022/08/15 04:38:18;;;;;;;0.20;0.20;;;;;;;21.46;61.75;99977.31;5086152;28;20025;-64
2022/08/15 04:40:44;;;;;;;0.20;0.20;;;;;;;21.75;60.75;99982.59;5068207;28;20020;-64
2022/08/15 04:43:10;;;;;;;0.20;0.20;;;;;;;22.08;60.66;99977.13;5086490;28;20104;-64
2022/08/15 04:45:38;;;;;;;0.20;0.20;;;;;;;22.38;58.17;99986.66;5086316;28;20124;-64
2022/08/15 04:48:04;;;;;;;0.17;0.17;;;;;;;22.50;58.11;99980.56;5086588;28;20052;-64
2022/08/15 04:50:31;;;;;;;0.38;0.38;;;;;;;22.71;56.76;99981.91;5086466;28;20024;-64
2022/08/15 04:52:58;;;;;;;0.20;0.20;;;;;;;22.91;56.33;99980.56;5068079;28;20080;-64
2022/08/15 04:55:24;;;;;;;0.10;0.10;;;;;;;23.07;55.44;99976.91;5086345;28;20032;-64
2022/08/15 04:57:53;;;;;;;0.85;0.85;;;;;;;23.25;54.12;99988.88;5085490;28;20412;-64
2022/08/15 05:00:22;;;;;;;0.20;0.20;;;;;;;23.31;54.97;99987.59;5086320;28;20021;-64
2022/08/15 05:03:05;;;;;;;0.32;0.32;;;;;;;23.41;53.75;99987.81;5085622;28;20043;-64
2022/08/15 05:05:36;;;;;;;0.10;0.10;;;;;;;23.42;54.26;99997.47;5085900;28;20025;-64
2022/08/15 05:08:02;;;;;;;0.30;0.30;;;;;;;23.49;53.49;99987.28;5086017;28;20028;-63
2022/08/15 05:10:28;;;;;;;0.90;0.47;;;;;;;23.51;53.42;99978.28;5086416;28;20086;-64
2022/08/15 05:12:53;;;;;;;0.20;0.20;;;;;;;23.72;54.41;99984.84;5085613;28;20052;-64
2022/08/15 05:15:21;;;;;;;0.20;0.20;;;;;;;24.04;53.43;99979.03;5086059;28;20024;-64
2022/08/15 05:17:47;;;;;;;0.20;0.20;;;;;;;24.32;53.34;99982.34;5086003;28;20086;-64
2022/08/15 05:20:14;;;;;;;0.10;0.10;;;;;;;24.56;50.70;99975.31;5085934;28;20574;-64
2022/08/15 05:23:07;;;;;;;0.55;0.55;;;;;;;24.58;50.26;99976.06;5085989;28;20108;-65
2022/08/15 05:25:36;;;;;;;0.10;0.10;;;;;;;24.53;50.83;99971.09;5086009;28;20055;-65
2022/08/15 05:28:02;;;;;;;0.20;0.20;;;;;;;24.62;51.27;99967.75;5085406;28;20024;-65
2022/08/15 05:30:28;;;;;;;0.50;0.50;;;;;;;24.75;50.89;99969.47;5085506;28;20016;-65
2022/08/15 05:33:05;;;;;;;0.10;0.10;;;;;;;24.83;49.79;99968.88;5085442;28;20025;-64
2022/08/15 05:35:31;;;;;;;0.35;0.35;;;;;;;24.84;49.72;99965.28;5085886;28;20055;-66
2022/08/15 05:38:00;;;;;;;0.20;0.20;;;;;;;24.99;49.92;99958.84;5085622;28;20044;-64
2022/08/15 05:40:32;;;;;;;0.20;0.20;;;;;;;25.15;49.11;99967.41;5085637;28;20077;-65
2022/08/15 05:43:11;;;;;;;3.10;1.48;;;;;;;25.33;49.11;99970.47;5085441;28;20048;-64
2022/08/15 05:45:51;;;;;;;0.10;0.10;;;;;;;25.61;49.64;99973.59;5085047;28;20047;-65
2022/08/15 05:48:21;;;;;;;0.10;0.10;;;;;;;26.03;48.94;99972.09;5085098;28;20029;-64
2022/08/15 05:51:05;;;;;;;0.68;0.28;;;;;;;26.15;48.84;99964.97;5085549;28;20016;-64
2022/08/15 05:53:37;;;;;;;0.20;0.20;;;;;;;26.33;47.90;99967.94;5085355;28;20024;-65
2022/08/15 05:56:09;;;;;;;0.10;0.10;;;;;;;26.49;48.42;99978.16;5085470;28;20044;-65
2022/08/15 05:58:49;;;;;;;0.28;0.28;;;;;;;26.71;48.03;99968.41;5066762;28;20060;-64
2022/08/15 06:01:44;;;;;;;0.57;0.57;;;;;;;26.72;45.88;99968.28;5085084;28;20036;-64
2022/08/15 06:04:37;;;;;;;0.30;0.30;;;;;;;26.77;46.90;99967.88;5081732;28;20041;-64
2022/08/15 06:07:10;;;;;;;0.25;0.25;;;;;;;26.93;45.52;99964.75;5085085;28;20024;-65
2022/08/15 06:09:51;;;;;;;0.10;0.10;;;;;;;26.66;45.87;99968.75;5085149;28;20080;-64
2022/08/15 06:12:25;;;;;;;0.10;0.10;;;;;;;26.60;46.07;99975.47;5084586;28;20028;-65
2022/08/15 06:14:55;;;;;;;0.10;0.10;;;;;;;26.50;45.94;99966.56;5084509;28;20024;-65
2022/08/15 06:17:42;;;;;;;0.20;0.20;;;;;;;26.31;45.76;99969.88;5084495;28;20028;-65
2022/08/15 06:20:11;;;;;;;0.10;0.10;;;;;;;26.02;46.71;99962.44;5084830;28;20024;-65
2022/08/15 06:22:48;;;;;;;0.40;0.40;;;;;;;25.86;47.04;99966.34;5084644;28;20028;-64
2022/08/15 06:25:35;;;;;;;0.10;0.10;;;;;;;25.92;47.67;99971.19;5085059;28;20031;-64
2022/08/15 06:28:00;;;;;;;0.22;0.22;;;;;;;26.03;47.52;99967.66;5084670;28;20025;-66
2022/08/15 06:30:29;;;;;;;0.20;0.20;;;;;;;26.32;47.28;99966.25;5084736;28;20039;-65
2022/08/15 06:33:06;;;;;;;0.20;0.20;;;;;;;26.53;46.82;99962.78;5084261;28;20542;-65
2022/08/15 06:35:42;;;;;;;0.30;0.30;;;;;;;26.64;45.97;99960.06;5084652;28;20032;-65
2022/08/15 06:38:25;;;;;;;0.43;0.43;;;;;;;26.39;46.95;99961.28;5084747;28;20031;-65
2022/08/15 06:41:19;;;;;;;0.10;0.10;;;;;;;26.64;46.32;99959.22;5084681;28;20025;-65
2022/08/15 06:43:45;;;;;;;3.30;0.90;;;;;;;26.53;46.99;99958.31;5074904;28;20055;-65
2022/08/15 06:46:11;;;;;;;0.10;0.10;;;;;;;26.76;46.30;99957.38;5084513;28;20408;-65
2022/08/15 06:48:39;;;;;;;0.10;0.10;;;;;;;26.72;46.41;99960.28;5084454;28;20048;-65
2022/08/15 06:51:07;;;;;;;0.10;0.10;;;;;;;26.52;46.52;99963.78;5084346;28;20024;-64
2022/08/15 06:53:51;;;;;;;0.10;0.10;;;;;;;26.24;47.73;99962.41;5084428;28;20030;-64
2022/08/15 06:56:43;;;;;;;0.30;0.30;;;;;;;26.60;47.66;99956.81;5084994;28;20058;-64
2022/08/15 06:59:21;;;;;;;0.10;0.10;;;;;;;26.80;46.65;99954.31;5084233;28;20021;-64
2022/08/15 07:02:10;;;;;;;0.10;0.10;;;;;;;26.39;47.24;99961.28;5084188;28;20028;-64
2022/08/15 07:04:42;;;;;;;0.63;0.63;;;;;;;26.24;47.31;99959.75;5084311;28;20074;-64
2022/08/15 07:07:45;;;;;;;0.10;0.10;;;;;;;26.04;48.02;99950.72;5066557;28;20016;-65
2022/08/15 07:10:23;;;;;;;0.20;0.20;;;;;;;25.98;48.33;99954.72;5084294;28;20063;-65
2022/08/15 07:13:12;;;;;;;0.30;0.30;;;;;;;26.06;48.89;99953.25;5083888;28;20032;-66
2022/08/15 07:16:02;;;;;;;0.20;0.20;;;;;;;26.34;47.90;99951.84;5084150;28;20020;-66
2022/08/15 07:18:37;;;;;;;0.20;0.20;;;;;;;26.49;47.75;99946.22;5084447;28;20024;-65
2022/08/15 07:21:05;;;;;;;0.30;0.30;;;;;;;26.57;47.20;99950.91;5084273;28;20210;-65
2022/08/15 07:23:32;;;;;;;0.20;0.20;;;;;;;26.55;47.62;99950.22;5066226;28;20052;-65
2022/08/15 07:26:05;;;;;;;0.10;0.10;;;;;;;26.61;46.96;99941.72;5084033;28;20028;-64
2022/08/15 07:28:33;;;;;;;0.38;0.38;;;;;;;26.44;47.54;99954.59;5087626;28;20035;-65
2022/08/15 07:31:18;;;;;;;0.47;0.47;;;;;;;26.50;47.69;99950.59;5087937;28;20048;-63
2022/08/15 07:33:44;;;;;;;0.20;0.20;;;;;;;26.69;47.75;99968.53;5088128;28;20028;-66
2022/08/15 07:36:24;;;;;;;0.65;0.65;;;;;;;26.86;47.36;99955.59;5088039;28;20028;-65
2022/08/15 07:38:51;;;;;;;0.10;0.10;;;;;;;26.87;47.23;99954.59;5088024;28;20023;-66
2022/08/15 07:41:24;;;;;;;0.30;0.30;;;;;;;27.01;46.57;99949.97;5087609;28;20028;-65
2022/08/15 07:43:59;;;;;;;0.70;0.70;;;;;;;27.13;46.83;99945.38;5087505;28;20025;-65
2022/08/15 07:46:37;;;;;;;1.13;1.13;;;;;;;27.44;46.31;99932.06;5087510;28;20055;-65
2022/08/15 07:49:14;;;;;;;0.65;0.45;;;;;;;27.52;46.15;99940.25;5087454;28;20027;-65
2022/08/15 07:51:44;;;;;;;1.45;1.17;;;;;;;27.49;45.77;99932.53;5087765;28;20095;-66
2022/08/15 07:54:42;;;;;;;0.10;0.10;;;;;;;27.53;46.00;99927.75;5087570;28;20031;-66
2022/08/15 07:57:36;;;;;;;0.43;0.43;;;;;;;27.88;45.48;99915.78;5087834;28;20032;-65
2022/08/15 08:00:08;;;;;;;0.10;0.10;;;;;;;28.33;45.34;99924.25;5087628;28;20044;-66
2022/08/15 08:02:42;;;;;;;2.72;1.88;;;;;;;28.57;44.69;99920.31;5069088;28;20028;-65
2022/08/15 08:05:09;;;;;;;1.35;1.23;;;;;;;28.92;44.33;99920.66;5069158;28;20031;-66
2022/08/15 08:07:48;;;;;;;0.95;0.95;;;;;;;29.03;43.50;99920.50;5069555;28;20024;-66
2022/08/15 08:10:31;;;;;;;0.10;0.10;;;;;;;28.89;42.70;99918.25;5087185;28;20376;-65
2022/08/15 08:13:09;;;;;;;0.60;0.60;;;;;;;28.59;43.83;99915.69;5087163;28;20020;-66
2022/08/15 08:15:52;;;;;;;0.75;0.75;;;;;;;28.74;43.49;99926.72;5087453;28;20032;-66
2022/08/15 08:18:34;;;;;;;0.10;0.10;;;;;;;28.92;43.28;99909.97;5087526;28;20044;-66
2022/08/15 08:21:11;;;;;;;0.30;0.30;;;;;;;29.02;42.77;99912.63;5087172;28;20020;-65
2022/08/15 08:23:42;;;;;;;0.10;0.10;;;;;;;28.98;42.84;99916.59;5087207;28;20026;-66
2022/08/15 08:26:20;;;;;;;0.10;0.10;;;;;;;29.06;42.47;99914.88;5087053;28;20140;-66
2022/08/15 08:28:49;;;;;;;0.13;0.13;;;;;;;29.28;42.61;99920.81;5086381;28;20025;-65
2022/08/15 08:31:17;;;;;;;0.10;0.10;;;;;;;29.52;41.75;99923.97;5086866;28;20027;-65
2022/08/15 08:34:07;;;;;;;32.08;1.75;;;;;;;29.65;40.65;99929.81;5086856;28;20024;-66
2022/08/15 08:36:48;;;;;;;0.30;0.30;;;;;;;29.29;41.42;99927.00;5068926;28;20092;-65
2022/08/15 08:39:36;;;;;;;0.47;0.47;;;;;;;28.90;42.45;99926.13;5067411;28;20023;-66
2022/08/15 08:42:02;;;;;;;0.52;0.52;;;;;;;29.11;41.66;99914.44;5086573;28;20091;-66
2022/08/15 08:44:45;;;;;;;0.60;0.47;;;;;;;28.78;42.45;99928.16;5068336;28;20025;-66
2022/08/15 08:47:39;;;;;;;0.32;0.32;;;;;;;28.97;42.53;99912.22;5086502;28;20043;-67
2022/08/15 08:50:13;;;;;;;0.22;0.22;;;;;;;28.77;42.67;99928.28;5086786;28;20044;-66
2022/08/15 08:52:57;;;;;;;0.10;0.10;;;;;;;28.41;43.71;99910.19;5087035;28;20103;-66
2022/08/15 08:55:30;;;;;;;0.10;0.10;;;;;;;28.38;43.87;99911.34;5086806;28;20039;-66
2022/08/15 08:58:03;;;;;;;0.30;0.30;;;;;;;28.93;43.60;99907.13;5086354;28;20084;-66
2022/08/15 09:00:43;;;;;;;0.10;0.10;;;;;;;29.43;43.07;99923.84;5086655;28;20060;-65
2022/08/15 09:03:21;;;;;;;0.10;0.10;;;;;;;30.17;41.87;99923.00;5067876;28;20046;-66
2022/08/15 09:05:55;;;;;;;0.10;0.10;;;;;;;30.49;40.38;99922.59;5086318;28;20480;-66
2022/08/15 09:08:26;;;;;;;0.15;0.15;;;;;;;30.35;40.51;99918.66;5086204;28;20024;-66
2022/08/15 09:10:57;;;;;;;0.10;0.10;;;;;;;30.33;39.95;99910.75;5086343;28;20055;-66
2022/08/15 09:13:30;;;;;;;0.20;0.20;;;;;;;30.09;41.02;99914.88;5086009;28;20039;-65
2022/08/15 09:16:00;;;;;;;0.73;0.47;;;;;;;30.27;41.27;99917.56;5086434;28;20020;-66
2022/08/15 09:18:40;;;;;;;0.30;0.30;;;;;;;30.75;39.56;99913.75;5086610;28;20021;-66
2022/08/15 09:21:05;;;;;;;0.20;0.20;;;;;;;30.64;38.97;99913.00;5086235;28;20028;-65
2022/08/15 09:23:40;;;;;;;0.10;0.10;;;;;;;30.70;38.75;99916.03;5086117;28;20050;-66
2022/08/15 09:26:19;;;;;;;0.90;0.82;;;;;;;30.45;39.44;99929.28;5086038;28;20028;-65
2022/08/15 09:28:50;;;;;;;0.15;0.15;;;;;;;30.18;39.72;99918.47;5086088;28;20016;-66
2022/08/15 09:31:23;;;;;;;0.20;0.20;;;;;;;30.10;39.23;99911.19;5086097;28;20115;-65
2022/08/15 09:34:00;;;;;;;0.20;0.20;;;;;;;29.64;40.72;99904.06;5086239;28;20054;-65
2022/08/15 09:36:25;;;;;;;0.52;0.52;;;;;;;29.71;41.46;99900.78;5068034;28;20034;-67
2022/08/15 09:38:56;;;;;;;0.10;0.10;;;;;;;30.59;39.51;99898.41;5086103;28;20017;-65
2022/08/15 09:41:43;;;;;;;2.88;1.30;;;;;;;30.55;39.85;99895.19;5085930;28;20020;-65
2022/08/15 09:44:26;;;;;;;0.10;0.10;;;;;;;30.80;39.28;99895.38;5085632;28;20489;-65
2022/08/15 09:47:33;;;;;;;0.35;0.35;;;;;;;30.72;38.46;99892.63;5085558;28;20041;-65
2022/08/15 09:50:01;;;;;;;0.10;0.10;;;;;;;30.63;39.63;99897.06;4984365;28;20125;-66
2022/08/15 09:52:34;;;;;;;0.20;0.20;;;;;;;30.88;39.68;99887.38;4984124;28;20031;-66
2022/08/15 09:55:13;;;;;;;0.20;0.20;;;;;;;31.61;39.04;99883.50;4984229;28;20127;-66
2022/08/15 09:57:44;;;;;;;0.10;0.10;;;;;;;31.93;37.94;99884.56;4983840;28;20046;-66
2022/08/15 10:00:16;;;;;;;0.20;0.20;;;;;;;32.13;37.04;99885.09;4967885;28;20102;-66
2022/08/15 10:02:44;;;;;;;0.63;0.63;;;;;;;31.99;37.05;99872.34;4983940;28;20023;-65
2022/08/15 10:05:16;;;;;;;0.20;0.20;;;;;;;31.73;36.97;99862.53;4984083;28;20038;-65
2022/08/15 10:07:42;;;;;;;0.10;0.10;;;;;;;31.36;37.73;99862.78;4983919;28;20058;-65
2022/08/15 10:10:19;;;;;;;0.10;0.10;;;;;;;31.54;36.74;99868.06;4984500;28;20031;-65
2022/08/15 10:13:22;;;;;;;0.65;0.65;;;;;;;31.09;38.09;99862.00;4983841;28;20050;-64
2022/08/15 10:15:47;;;;;;;0.10;0.10;;;;;;;30.77;38.66;99859.00;4984156;28;20035;-65
2022/08/15 10:18:22;;;;;;;0.10;0.10;;;;;;;30.42;39.00;99853.59;4984385;28;20026;-65
2022/08/15 10:20:50;;;;;;;0.10;0.10;;;;;;;29.75;40.19;99864.72;4983828;28;20042;-65
2022/08/15 10:23:16;;;;;;;0.55;0.55;;;;;;;29.60;41.08;99856.38;4983898;28;20031;-65
2022/08/15 10:25:45;;;;;;;0.10;0.10;;;;;;;29.76;40.90;99855.72;4992832;28;20387;-64
2022/08/15 10:28:11;;;;;;;0.75;0.75;;;;;;;30.03;40.47;99846.75;5067061;28;20021;-65
2022/08/15 10:30:44;;;;;;;0.10;0.10;;;;;;;30.03;40.98;99853.94;5085160;28;20092;-65
2022/08/15 10:33:29;;;;;;;0.10;0.10;;;;;;;30.75;39.95;99852.94;5085105;28;20377;-66
2022/08/15 10:36:13;;;;;;;0.75;0.75;;;;;;;31.22;39.59;99853.53;5085092;28;20051;-65
2022/08/15 10:38:45;;;;;;;0.10;0.10;;;;;;;31.49;39.05;99846.25;5085168;28;20032;-65
2022/08/15 10:41:34;;;;;;;0.10;0.10;;;;;;;31.61;38.22;99848.63;5066884;28;20119;-65
2022/08/15 10:44:42;;;;;;;0.20;0.20;;;;;;;31.62;38.39;99851.16;5084792;28;20029;-65
2022/08/15 10:47:19;;;;;;;0.40;0.40;;;;;;;31.47;38.43;99850.13;5084473;28;20087;-65
2022/08/15 10:49:44;;;;;;;1.40;0.52;;;;;;;31.45;38.98;99834.19;5084901;28;20033;-65
2022/08/15 10:52:38;;;;;;;0.90;0.90;;;;;;;31.87;38.52;99848.47;5084970;28;20025;-66
2022/08/15 10:55:32;;;;;;;0.30;0.30;;;;;;;31.98;38.23;99835.78;5085008;28;20020;-66
2022/08/15 10:58:32;;;;;;;0.20;0.20;;;;;;;32.17;38.12;99837.28;5084710;28;20020;-66
2022/08/15 11:01:11;;;;;;;0.15;0.15;;;;;;;32.49;37.83;99840.09;5084924;28;20030;-66
2022/08/15 11:03:45;;;;;;;0.10;0.10;;;;;;;32.77;37.33;99837.00;5088799;28;20028;-65
2022/08/15 11:06:14;;;;;;;0.10;0.10;;;;;;;32.59;36.44;99827.31;5088965;28;20028;-66
2022/08/15 11:08:53;;;;;;;1.70;1.00;;;;;;;32.42;37.63;99828.34;5089104;28;20089;-66
2022/08/15 11:11:25;;;;;;;0.10;0.10;;;;;;;32.60;37.49;99836.22;5088862;28;20058;-66
2022/08/15 11:13:55;;;;;;;1.02;1.02;;;;;;;32.59;37.33;99834.56;5088680;28;20040;-66
2022/08/15 11:16:36;;;;;;;0.30;0.30;;;;;;;32.46;37.70;99827.00;5088786;28;20028;-66
2022/08/15 11:19:19;;;;;;;3.00;1.75;;;;;;;32.54;37.51;99827.00;5088754;28;20029;-66
2022/08/15 11:21:55;;;;;;;0.50;0.50;;;;;;;32.54;37.07;99821.66;5088933;28;20025;-66
2022/08/15 11:24:40;;;;;;;0.45;0.45;;;;;;;32.44;37.71;99826.31;5088495;28;20028;-66
2022/08/15 11:27:21;;;;;;;0.32;0.32;;;;;;;32.22;38.24;99828.72;5088421;28;20024;-65
2022/08/15 11:29:48;;;;;;;0.50;0.50;;;;;;;31.71;38.79;99837.75;5088481;28;20050;-66
2022/08/15 11:32:31;;;;;;;0.20;0.20;;;;;;;30.59;40.65;99829.63;5088000;28;20061;-66
2022/08/15 11:34:59;;;;;;;2.05;1.85;;;;;;;29.99;42.25;99823.13;5070308;28;20112;-65
2022/08/15 11:37:31;;;;;;;1.92;1.83;;;;;;;29.67;42.96;99826.22;5088125;28;20039;-65
2022/08/15 11:40:23;;;;;;;0.10;0.10;;;;;;;29.69;43.30;99828.72;5088468;28;20020;-65
2022/08/15 11:42:50;;;;;;;0.25;0.25;;;;;;;29.58;43.79;99829.81;5087833;28;20033;-66
2022/08/15 11:45:19;;;;;;;0.20;0.20;;;;;;;29.49;43.84;99825.34;5088151;28;20024;-65
2022/08/15 11:47:52;;;;;;;0.10;0.10;;;;;;;29.30;44.67;99832.47;5087923;28;20037;-65
2022/08/15 11:50:55;;;;;;;0.22;0.22;;;;;;;29.19;44.83;99837.03;5088156;28;20426;-65
2022/08/15 11:53:20;;;;;;;1.33;1.13;;;;;;;29.23;45.20;99826.91;5087765;28;20042;-66
2022/08/15 11:55:46;;;;;;;0.38;0.38;;;;;;;29.01;45.59;99830.81;5087966;28;20017;-66